Time;durP1;ratioP1;P1;durP2;ratioP2;P2;SDS_P1;SDS_P2;PMS_P1;PMS_P2;Temp;Humidity;BMP_temperature;BMP_pressure;BME280_temperature;BME280_humidity;BME280_pressure;Samples;Min_cycle;Max_cycle;Signal;HPM_P1;HPM_P2
2021/09/02 00:00:56;;;;;;;6.38;3.47;;;12.80;99.90;;;;;;4882972;29;20185;-92
2021/09/02 00:03:24;;;;;;;6.53;3.80;;;;;;;;;;4882401;29;20200;-93
2021/09/02 00:05:50;;;;;;;6.22;3.45;;;12.80;99.90;;;;;;4898805;29;20182;-92
2021/09/02 00:08:16;;;;;;;7.50;4.10;;;;;;;;;;4882856;29;20704;-93
2021/09/02 00:10:42;;;;;;;9.80;4.53;;;12.70;99.90;;;;;;4882641;29;20276;-93
2021/09/02 00:13:08;;;;;;;7.20;4.18;;;13.00;99.90;;;;;;4882989;29;20228;-94
2021/09/02 00:15:34;;;;;;;5.90;3.70;;;;;;;;;;4882881;29;20546;-93
2021/09/02 00:18:00;;;;;;;12.23;3.90;;;12.70;99.90;;;;;;4882679;29;20719;-95
2021/09/02 00:20:27;;;;;;;8.88;4.20;;;12.70;99.90;;;;;;4899141;29;20260;-93
2021/09/02 00:22:52;;;;;;;10.60;4.10;;;12.80;99.90;;;;;;4882096;29;20268;-91
2021/09/02 00:25:21;;;;;;;12.75;4.63;;;;;;;;;;4882332;29;20295;-92
2021/09/02 00:27:46;;;;;;;7.65;3.72;;;12.60;99.90;;;;;;4898424;29;20185;-93
2021/09/02 00:30:12;;;;;;;9.07;3.90;;;12.50;99.90;;;;;;4882569;29;20271;-93
2021/09/02 00:32:38;;;;;;;7.65;4.00;;;11.80;99.90;;;;;;4882138;29;20182;-92
2021/09/02 00:35:05;;;;;;;11.68;4.45;;;12.50;99.90;;;;;;4898883;29;20241;-93
2021/09/02 00:37:31;;;;;;;7.70;4.50;;;12.50;99.90;;;;;;4882216;29;20232;-94
2021/09/02 00:39:57;;;;;;;7.55;4.40;;;;;;;;;;4866893;29;20240;-93
2021/09/02 00:42:25;;;;;;;6.28;3.78;;;12.40;99.90;;;;;;4882218;29;20184;-92
2021/09/02 00:44:51;;;;;;;9.65;4.40;;;12.60;99.90;;;;;;4898663;29;20208;-94
2021/09/02 00:47:27;;;;;;;8.52;4.38;;;12.40;99.90;;;;;;4898629;29;20185;-93
2021/09/02 00:49:56;;;;;;;8.93;4.20;;;12.50;99.90;;;;;;4882440;29;20179;-93
2021/09/02 00:52:27;;;;;;;11.25;4.65;;;12.70;99.90;;;;;;4882393;29;20182;-94
2021/09/02 00:54:56;;;;;;;7.80;4.25;;;12.30;99.90;;;;;;4898974;29;20197;-94
2021/09/02 00:57:25;;;;;;;9.10;3.90;;;12.30;99.90;;;;;;4882467;29;20189;-93
2021/09/02 00:59:51;;;;;;;7.57;4.25;;;12.50;99.90;;;;;;4899043;29;20184;-95
2021/09/02 01:02:19;;;;;;;8.02;4.63;;;12.60;99.90;;;;;;4866762;29;20185;-94
2021/09/02 01:04:45;;;;;;;15.13;4.63;;;12.50;99.90;;;;;;4882046;29;20205;-94
2021/09/02 01:07:11;;;;;;;12.50;5.10;;;;;;;;;;4898581;29;20905;-94
2021/09/02 01:09:36;;;;;;;9.02;5.00;;;12.30;99.90;;;;;;4881849;29;20284;-93
2021/09/02 01:12:32;;;;;;;8.15;3.97;;;12.50;99.90;;;;;;4866309;29;20272;-93
2021/09/02 01:15:05;;;;;;;11.30;4.28;;;12.30;99.90;;;;;;4898331;29;20208;-92
2021/09/02 01:17:31;;;;;;;10.55;4.53;;;12.10;99.90;;;;;;4882122;29;20210;-93
2021/09/02 01:19:57;;;;;;;10.13;4.55;;;12.10;99.90;;;;;;4881809;29;20173;-93
2021/09/02 01:22:29;;;;;;;7.85;4.10;;;12.10;99.90;;;;;;4898616;29;20178;-92
2021/09/02 01:25:03;;;;;;;8.88;4.57;;;12.10;99.90;;;;;;4898785;29;20208;-93
2021/09/02 01:27:28;;;;;;;8.10;4.10;;;12.00;99.90;;;;;;4882205;29;20276;-94
2021/09/02 01:29:59;;;;;;;10.15;4.40;;;11.90;99.90;;;;;;4898507;29;20320;-92
2021/09/02 01:32:29;;;;;;;8.77;4.43;;;12.20;99.90;;;;;;4882117;29;20189;-93
2021/09/02 01:34:57;;;;;;;6.63;4.28;;;12.10;99.90;;;;;;4882196;29;20193;-93
2021/09/02 01:37:24;;;;;;;10.32;4.95;;;11.90;99.90;;;;;;4882013;29;20327;-93
2021/09/02 01:39:51;;;;;;;12.95;4.50;;;12.20;99.90;;;;;;4885351;29;20559;-93
2021/09/02 01:42:18;;;;;;;7.78;4.07;;;12.00;99.90;;;;;;4884869;29;20213;-93
2021/09/02 01:44:45;;;;;;;9.60;4.68;;;11.70;99.90;;;;;;4884985;29;20280;-94
2021/09/02 01:47:25;;;;;;;9.55;4.20;;;11.70;99.90;;;;;;4885308;29;20189;-93
2021/09/02 01:49:52;;;;;;;8.43;4.10;;;11.70;99.90;;;;;;4885545;29;20189;-94
2021/09/02 01:52:22;;;;;;;9.00;4.57;;;12.00;99.90;;;;;;4901670;29;20632;-92
2021/09/02 01:54:49;;;;;;;8.48;4.70;;;11.60;99.90;;;;;;4885161;29;20622;-93
2021/09/02 01:57:16;;;;;;;14.50;4.95;;;11.70;99.90;;;;;;4869745;29;20268;-94
2021/09/02 01:59:42;;;;;;;12.45;4.70;;;;;;;;;;4885275;29;20273;-93
2021/09/02 02:02:11;;;;;;;10.43;5.35;;;;;;;;;;4884901;29;20211;-93
2021/09/02 02:04:36;;;;;;;9.93;4.95;;;11.50;99.90;;;;;;4884981;29;20240;-94
2021/09/02 02:07:02;;;;;;;7.40;3.92;;;11.40;99.90;;;;;;4901399;29;20620;-94
2021/09/02 02:09:28;;;;;;;7.60;4.35;;;;;;;;;;4903114;29;20209;-93
2021/09/02 02:11:54;;;;;;;8.48;5.05;;;11.40;99.90;;;;;;4870110;29;20189;-94
2021/09/02 02:14:23;;;;;;;9.43;4.80;;;11.30;99.90;;;;;;4902223;29;20282;-95
2021/09/02 02:16:52;;;;;;;8.98;4.85;;;;;;;;;;4901855;29;20182;-95
2021/09/02 02:19:18;;;;;;;7.82;4.53;;;11.40;99.90;;;;;;4901566;29;20177;-94
2021/09/02 02:21:43;;;;;;;12.63;4.90;;;10.50;99.90;;;;;;4884865;29;20177;-94
2021/09/02 02:24:09;;;;;;;13.55;5.25;;;11.10;99.90;;;;;;4884540;29;20224;-94
2021/09/02 02:26:38;;;;;;;9.95;5.05;;;11.10;99.90;;;;;;4885228;29;20547;-94
2021/09/02 02:29:04;;;;;;;11.90;4.97;;;10.90;99.90;;;;;;4887911;29;20552;-93
2021/09/02 02:31:30;;;;;;;10.15;5.13;;;;;;;;;;4870985;29;20193;-93
2021/09/02 02:33:56;;;;;;;11.00;4.45;;;11.10;99.90;;;;;;4884750;29;20189;-93
2021/09/02 02:36:22;;;;;;;10.80;4.50;;;;;;;;;;4884795;29;20237;-94
2021/09/02 02:38:50;;;;;;;11.05;4.90;;;11.00;99.90;;;;;;4886856;29;20192;-93
2021/09/02 02:41:16;;;;;;;12.38;4.65;;;11.50;99.90;;;;;;4853452;29;20193;-93
2021/09/02 02:43:42;;;;;;;11.87;4.57;;;;;;;;;;4883792;29;20220;-93
2021/09/02 02:46:07;;;;;;;8.63;4.80;;;11.10;99.90;;;;;;4901897;29;20223;-92
2021/09/02 02:48:33;;;;;;;10.63;4.95;;;;;;;;;;4883892;29;20208;-92
2021/09/02 02:50:59;;;;;;;13.27;5.53;;;10.70;99.90;;;;;;4883317;29;20204;-94
2021/09/02 02:53:25;;;;;;;13.15;5.40;;;;;;;;;;4883539;29;20557;-94
2021/09/02 02:55:51;;;;;;;9.95;4.75;;;10.90;99.90;;;;;;4884075;29;20192;-92
2021/09/02 02:58:17;;;;;;;11.45;4.88;;;10.80;99.90;;;;;;4883587;29;20185;-92
2021/09/02 03:00:43;;;;;;;9.27;4.30;;;;;;;;;;4883919;29;20241;-92
2021/09/02 03:03:08;;;;;;;12.20;5.10;;;10.80;99.90;;;;;;4883744;29;20355;-93
2021/09/02 03:05:34;;;;;;;11.57;5.13;;;;;;;;;;4883579;29;20311;-94
2021/09/02 03:08:02;;;;;;;7.30;4.22;;;10.70;99.90;;;;;;4900588;29;20276;-93
2021/09/02 03:10:28;;;;;;;10.87;5.50;;;10.70;99.90;;;;;;4884013;29;20181;-93
2021/09/02 03:12:53;;;;;;;8.03;4.43;;;10.70;99.90;;;;;;4883525;29;20204;-92
2021/09/02 03:15:19;;;;;;;10.87;5.13;;;;;;;;;;4883510;29;20186;-93
2021/09/02 03:17:45;;;;;;;8.70;4.50;;;10.70;99.90;;;;;;4883619;29;20189;-93
2021/09/02 03:20:11;;;;;;;12.53;5.03;;;11.10;99.90;;;;;;4883710;29;20189;-92
2021/09/02 03:22:37;;;;;;;16.33;5.23;;;;;;;;;;4882914;29;20181;-92
2021/09/02 03:25:03;;;;;;;12.18;4.63;;;10.60;99.90;;;;;;4883644;29;20217;-93
2021/09/02 03:27:29;;;;;;;11.83;4.77;;;10.90;99.90;;;;;;4884425;29;20185;-92
2021/09/02 03:29:55;;;;;;;11.83;5.33;;;;;;;;;;4885097;29;20201;-92
2021/09/02 03:32:21;;;;;;;9.80;5.43;;;10.60;99.90;;;;;;4899351;29;20197;-92
2021/09/02 03:34:47;;;;;;;10.63;5.60;;;;;;;;;;4907283;29;20196;-93
2021/09/02 03:37:28;;;;;;;;;;;;;;;;;;;;;
2021/09/02 03:39:54;;;;;;;11.27;5.00;;;10.40;99.90;;;;;;4901774;29;20636;-94
2021/09/02 03:42:20;;;;;;;10.77;5.30;;;10.30;99.90;;;;;;4883501;29;20276;-92
2021/09/02 03:44:46;;;;;;;11.30;5.37;;;;;;;;;;4899800;29;20288;-92
2021/09/02 03:47:12;;;;;;;13.57;5.43;;;;;;;;;;4867087;29;20252;-92
2021/09/02 03:49:38;;;;;;;11.90;5.40;;;10.40;99.90;;;;;;4899834;29;20173;-93
2021/09/02 03:52:04;;;;;;;16.50;5.73;;;10.40;99.90;;;;;;4883173;29;20188;-93
2021/09/02 03:54:30;;;;;;;9.20;5.00;;;;;;;;;;4883113;29;20639;-93
2021/09/02 03:56:56;;;;;;;11.83;5.07;;;;;;;;;;4883810;29;20188;-92
2021/09/02 03:59:22;;;;;;;12.37;5.33;;;;;;;;;;4883342;29;20196;-93
2021/09/02 04:01:48;;;;;;;14.30;5.50;;;10.50;99.90;;;;;;4882502;29;20260;-93
2021/09/02 04:04:14;;;;;;;11.87;5.00;;;;;;;;;;4882278;29;20686;-92
2021/09/02 04:06:40;;;;;;;15.20;5.70;;;;;;;;;;4882227;29;20547;-94
2021/09/02 04:09:06;;;;;;;15.63;5.87;;;;;;;;;;4902524;29;20209;-96
2021/09/02 04:11:32;;;;;;;14.13;4.67;;;;;;;;;;4884833;29;20669;-96
2021/09/02 04:13:58;;;;;;;13.20;5.77;;;10.50;99.90;;;;;;4885231;29;20280;-96
2021/09/02 04:16:23;;;;;;;13.53;6.30;;;10.30;99.90;;;;;;4883283;29;20200;-96
2021/09/02 04:18:49;;;;;;;12.00;5.00;;;10.30;99.90;;;;;;4886170;29;20276;-95
2021/09/02 04:21:15;;;;;;;10.70;5.17;;;10.20;99.90;;;;;;4904817;29;20268;-95
2021/09/02 04:23:43;;;;;;;17.27;5.73;;;;;;;;;;4886860;29;20213;-93
2021/09/02 04:26:09;;;;;;;13.43;5.50;;;;;;;;;;4885295;29;20283;-94
2021/09/02 04:28:35;;;;;;;10.50;5.20;;;10.40;99.90;;;;;;4882985;29;20198;-95
2021/09/02 04:31:01;;;;;;;18.77;6.00;;;10.60;99.90;;;;;;4883100;29;20185;-94
2021/09/02 04:33:27;;;;;;;13.90;5.00;;;;;;;;;;4899761;29;20241;-94
2021/09/02 04:35:54;;;;;;;15.57;5.23;;;;;;;;;;4898950;29;20226;-95
2021/09/02 04:38:20;;;;;;;12.20;5.60;;;10.40;99.90;;;;;;4899134;29;20320;-95
2021/09/02 04:40:47;;;;;;;12.37;4.83;;;10.40;99.90;;;;;;4882341;29;20182;-94
2021/09/02 04:43:13;;;;;;;12.23;5.80;;;;;;;;;;4881732;29;20192;-94
2021/09/02 04:45:42;;;;;;;17.13;5.50;;;10.50;99.90;;;;;;4866837;29;20261;-95
2021/09/02 04:48:18;;;;;;;13.10;5.20;;;10.70;99.90;;;;;;4899651;29;20189;-96
2021/09/02 04:50:54;;;;;;;17.27;5.80;;;10.40;99.90;;;;;;4882634;29;20653;-95
2021/09/02 04:53:19;;;;;;;13.43;5.67;;;10.60;99.90;;;;;;4869525;29;20181;-92
2021/09/02 04:55:48;;;;;;;17.53;5.97;;;;;;;;;;4882461;29;20188;-91
2021/09/02 04:58:15;;;;;;;14.43;5.30;;;10.70;99.90;;;;;;4882231;29;20181;-94
2021/09/02 05:00:41;;;;;;;11.97;5.23;;;10.70;99.90;;;;;;4898836;29;20177;-94
2021/09/02 05:03:07;;;;;;;13.33;5.50;;;11.10;99.90;;;;;;4882182;29;20185;-93
2021/09/02 05:05:33;;;;;;;11.03;4.50;;;10.00;99.90;;;;;;4897752;29;20240;-91
2021/09/02 05:07:59;;;;;;;10.80;5.03;;;10.90;99.90;;;;;;4884140;29;20212;-94
2021/09/02 05:10:26;;;;;;;11.77;4.30;;;11.00;99.90;;;;;;4883710;29;20249;-95
2021/09/02 05:12:54;;;;;;;12.60;4.67;;;11.00;99.90;;;;;;4883720;29;20181;-94
2021/09/02 05:15:20;;;;;;;9.60;4.87;;;11.00;99.90;;;;;;4884698;29;20221;-92
2021/09/02 05:17:47;;;;;;;13.80;5.30;;;11.30;99.90;;;;;;4900765;29;20627;-92
2021/09/02 05:20:14;;;;;;;9.93;5.00;;;11.10;99.90;;;;;;4885133;29;20173;-93
2021/09/02 05:22:40;;;;;;;15.50;4.75;;;11.10;99.90;;;;;;4885006;29;20219;-94
2021/09/02 05:25:07;;;;;;;10.77;4.22;;;9.90;99.90;;;;;;4900571;29;20260;-92
2021/09/02 05:27:33;;;;;;;12.83;6.17;;;11.50;99.90;;;;;;4901507;29;20182;-92
2021/09/02 05:29:59;;;;;;;12.80;5.30;;;;;;;;;;4885533;29;20554;-89
2021/09/02 05:32:25;;;;;;;13.60;5.53;;;11.30;99.90;;;;;;4883722;29;20276;-91
2021/09/02 05:34:51;;;;;;;13.25;4.47;;;;;;;;;;4884181;29;20356;-92
2021/09/02 05:37:17;;;;;;;13.80;4.10;;;11.50;99.90;;;;;;4901223;29;20231;-90
2021/09/02 05:39:43;;;;;;;12.13;4.40;;;11.60;99.90;;;;;;4901286;29;20260;-92
2021/09/02 05:42:11;;;;;;;16.53;5.70;;;;;;;;;;4903812;29;20545;-91
2021/09/02 05:44:36;;;;;;;10.73;5.18;;;11.70;99.90;;;;;;4870601;29;20224;-91
2021/09/02 05:47:02;;;;;;;10.30;5.43;;;11.80;99.90;;;;;;4886654;29;20193;-93
2021/09/02 05:49:28;;;;;;;15.73;4.88;;;11.90;99.90;;;;;;4885845;29;20181;-90
2021/09/02 05:51:54;;;;;;;14.13;4.15;;;11.70;99.90;;;;;;4886237;29;20193;-92
2021/09/02 05:54:19;;;;;;;10.07;4.57;;;11.90;99.90;;;;;;4902153;29;20552;-89
2021/09/02 05:56:45;;;;;;;9.73;4.65;;;12.00;99.90;;;;;;4901662;29;20189;-90
2021/09/02 05:59:12;;;;;;;8.68;4.30;;;12.10;99.90;;;;;;4900528;29;20189;-90
2021/09/02 06:01:37;;;;;;;13.57;4.60;;;12.10;99.90;;;;;;4900662;29;20287;-89
2021/09/02 06:04:03;;;;;;;9.77;4.68;;;12.20;99.90;;;;;;4868495;29;20304;-90
2021/09/02 06:06:29;;;;;;;17.67;4.82;;;12.20;99.90;;;;;;4880707;29;20217;-91
2021/09/02 06:08:55;;;;;;;9.70;4.90;;;;;;;;;;4899599;29;20215;-91
2021/09/02 06:11:23;;;;;;;12.35;5.82;;;12.30;99.90;;;;;;4884488;29;20189;-89
2021/09/02 06:13:49;;;;;;;9.13;4.65;;;12.60;99.90;;;;;;4874700;29;20185;-89
2021/09/02 06:16:15;;;;;;;9.35;4.65;;;12.50;99.90;;;;;;4902109;29;20185;-91
2021/09/02 06:18:41;;;;;;;10.68;3.95;;;;;;;;;;4887823;29;20224;-89
2021/09/02 06:21:07;;;;;;;10.30;3.75;;;12.70;99.90;;;;;;4885217;29;20276;-90
2021/09/02 06:23:32;;;;;;;6.85;3.80;;;12.80;99.90;;;;;;4884647;29;20220;-89
2021/09/02 06:25:59;;;;;;;9.45;4.43;;;;;;;;;;4884549;29;20189;-90
2021/09/02 06:28:24;;;;;;;7.55;3.95;;;12.80;99.90;;;;;;4885303;29;20293;-89
2021/09/02 06:30:50;;;;;;;11.02;3.70;;;;;;;;;;4885067;29;20645;-90
2021/09/02 06:33:16;;;;;;;9.13;3.70;;;12.90;99.90;;;;;;4885050;29;20264;-89
2021/09/02 06:35:42;;;;;;;9.10;4.43;;;12.90;99.90;;;;;;4870148;29;20224;-88
2021/09/02 06:38:13;;;;;;;9.68;4.20;;;12.90;99.90;;;;;;4883857;29;20268;-87
2021/09/02 06:40:38;;;;;;;9.43;4.72;;;13.00;99.90;;;;;;4900858;29;20168;-88
2021/09/02 06:43:04;;;;;;;8.90;3.95;;;13.00;99.90;;;;;;4883700;29;20189;-88
2021/09/02 06:45:30;;;;;;;9.10;3.95;;;13.00;99.90;;;;;;4900671;29;20268;-89
2021/09/02 06:47:56;;;;;;;10.20;3.47;;;;;;;;;;4900305;29;20177;-88
2021/09/02 06:50:21;;;;;;;12.20;3.85;;;13.10;99.90;;;;;;4883636;29;20638;-88
2021/09/02 06:52:47;;;;;;;8.25;4.05;;;13.20;99.90;;;;;;4883423;29;20220;-88
2021/09/02 06:55:13;;;;;;;9.10;3.85;;;13.20;99.90;;;;;;4883499;29;20643;-89
2021/09/02 06:57:40;;;;;;;11.38;4.15;;;13.60;99.90;;;;;;4883324;29;20184;-88
2021/09/02 07:00:07;;;;;;;10.50;3.72;;;13.40;99.90;;;;;;4900685;29;20686;-91
2021/09/02 07:02:34;;;;;;;16.70;6.25;;;13.50;99.90;;;;;;4900657;29;20270;-89
2021/09/02 07:05:00;;;;;;;9.90;3.40;;;13.60;99.90;;;;;;4883255;29;20201;-87
2021/09/02 07:07:36;;;;;;;8.88;3.50;;;13.60;99.90;;;;;;4902693;29;20193;-91
2021/09/02 07:10:05;;;;;;;6.18;3.22;;;13.50;99.90;;;;;;4889198;29;20609;-91
2021/09/02 07:12:31;;;;;;;11.38;3.47;;;13.80;99.90;;;;;;4879907;29;20247;-89
2021/09/02 07:14:57;;;;;;;12.98;3.78;;;;;;;;;;4890507;29;20229;-90
2021/09/02 07:17:23;;;;;;;8.02;3.78;;;13.70;99.90;;;;;;4910966;29;20177;-90
2021/09/02 07:19:49;;;;;;;7.97;3.25;;;13.90;99.90;;;;;;4883925;29;20244;-89
2021/09/02 07:22:15;;;;;;;7.95;3.33;;;;;;;;;;4883227;29;20538;-91
2021/09/02 07:24:41;;;;;;;14.57;4.22;;;13.80;99.90;;;;;;4899066;29;20205;-89
2021/09/02 07:27:07;;;;;;;7.53;2.97;;;;;;;;;;4899009;29;20773;-91
2021/09/02 07:29:33;;;;;;;9.70;3.50;;;13.90;99.90;;;;;;4882106;29;20193;-89
2021/09/02 07:31:59;;;;;;;9.13;3.58;;;14.20;99.90;;;;;;4881737;29;20666;-89
2021/09/02 07:34:25;;;;;;;14.32;3.75;;;;;;;;;;4866611;29;20224;-90
2021/09/02 07:36:51;;;;;;;11.32;4.30;;;14.10;99.90;;;;;;4881903;29;20236;-92
2021/09/02 07:39:19;;;;;;;9.38;4.20;;;14.20;99.90;;;;;;4882408;29;20181;-92
2021/09/02 07:41:44;;;;;;;7.68;4.95;;;14.50;99.90;;;;;;4881701;29;20269;-90
2021/09/02 07:44:10;;;;;;;10.40;6.05;;;;;;;;;;4898650;29;20735;-92
2021/09/02 07:46:36;;;;;;;17.27;7.55;;;14.30;99.90;;;;;;4899195;29;20189;-91
2021/09/02 07:49:02;;;;;;;14.15;7.68;;;;;;;;;;4881900;29;20189;-90
2021/09/02 07:51:28;;;;;;;17.08;8.15;;;14.10;99.90;;;;;;4898737;29;20189;-91
2021/09/02 07:53:54;;;;;;;14.45;8.57;;;14.00;99.90;;;;;;4899571;29;20366;-93
2021/09/02 07:56:20;;;;;;;11.23;7.45;;;;;;;;;;4882530;29;20641;-93
2021/09/02 07:58:46;;;;;;;16.00;7.20;;;14.10;99.90;;;;;;4898584;29;20208;-90
2021/09/02 08:01:13;;;;;;;18.33;5.78;;;;;;;;;;4882419;29;20220;-93
2021/09/02 08:03:41;;;;;;;11.27;5.75;;;14.20;99.90;;;;;;4883554;29;20249;-95
2021/09/02 08:06:07;;;;;;;10.90;5.15;;;14.20;99.90;;;;;;4900189;29;20253;-93
2021/09/02 08:08:33;;;;;;;9.50;3.85;;;14.40;99.90;;;;;;4883071;29;20178;-93
2021/09/02 08:10:59;;;;;;;10.00;3.85;;;14.40;99.90;;;;;;4882903;29;20211;-93
2021/09/02 08:13:25;;;;;;;16.00;4.25;;;14.50;99.90;;;;;;4882740;29;20273;-95
2021/09/02 08:15:51;;;;;;;8.13;3.90;;;14.50;99.90;;;;;;4898925;29;20217;-93
2021/09/02 08:18:17;;;;;;;10.13;4.13;;;14.80;99.90;;;;;;4883673;29;20196;-93
2021/09/02 08:20:43;;;;;;;8.80;3.33;;;;;;;;;;4894082;29;20188;-93
2021/09/02 08:23:09;;;;;;;6.57;3.10;;;15.60;99.90;;;;;;4888126;29;20177;-91
2021/09/02 08:25:35;;;;;;;10.93;3.05;;;14.80;99.90;;;;;;4866677;29;20213;-90
2021/09/02 08:28:02;;;;;;;5.47;3.08;;;14.60;99.90;;;;;;4881511;29;20271;-91
2021/09/02 08:30:29;;;;;;;6.22;3.10;;;14.90;99.90;;;;;;4898143;29;20177;-90
2021/09/02 08:32:56;;;;;;;9.27;3.53;;;14.60;99.90;;;;;;4881443;29;20177;-92
2021/09/02 08:35:30;;;;;;;6.97;2.50;;;14.60;99.90;;;;;;4881233;29;20204;-89
2021/09/02 08:38:02;;;;;;;6.25;3.03;;;14.70;99.90;;;;;;4880701;29;20233;-89
2021/09/02 08:40:35;;;;;;;6.10;2.75;;;14.50;99.90;;;;;;4898069;29;20162;-89
2021/09/02 08:43:01;;;;;;;7.35;3.25;;;14.40;99.90;;;;;;4898091;29;20647;-90
2021/09/02 08:45:29;;;;;;;7.60;2.83;;;14.60;99.90;;;;;;4897646;29;20281;-89
2021/09/02 08:47:55;;;;;;;11.05;3.22;;;14.60;99.90;;;;;;4880711;29;20212;-89
2021/09/02 08:50:25;;;;;;;7.05;2.97;;;14.80;99.90;;;;;;4897987;29;20272;-89
2021/09/02 08:52:55;;;;;;;11.88;3.05;;;14.70;99.90;;;;;;4880505;29;20565;-91
2021/09/02 08:55:23;;;;;;;9.32;3.03;;;15.00;99.90;;;;;;4881754;29;20272;-93
2021/09/02 08:57:50;;;;;;;12.07;3.60;;;15.00;99.90;;;;;;4899521;29;20181;-93
2021/09/02 09:00:16;;;;;;;6.57;3.30;;;13.80;99.90;;;;;;4881359;29;20241;-93
2021/09/02 09:02:43;;;;;;;10.45;3.38;;;14.40;99.90;;;;;;4865713;29;20550;-90
2021/09/02 09:05:10;;;;;;;6.38;3.53;;;14.40;99.90;;;;;;4880606;29;20201;-92
2021/09/02 09:07:39;;;;;;;10.65;3.42;;;14.40;99.90;;;;;;4866021;29;20280;-91
2021/09/02 09:10:14;;;;;;;7.53;3.47;;;14.50;99.90;;;;;;4881903;29;20187;-90
2021/09/02 09:12:42;;;;;;;7.55;3.78;;;14.70;99.90;;;;;;4898077;29;20181;-90
2021/09/02 09:15:17;;;;;;;11.70;4.82;;;14.80;99.90;;;;;;4882709;29;20752;-90
2021/09/02 09:17:48;;;;;;;14.38;3.38;;;14.60;99.90;;;;;;4883411;29;20252;-93
2021/09/02 09:20:17;;;;;;;8.38;3.22;;;14.80;99.90;;;;;;4899170;29;20169;-89
2021/09/02 09:22:47;;;;;;;12.25;4.07;;;14.90;99.90;;;;;;4880504;29;20244;-88
2021/09/02 09:25:13;;;;;;;8.88;3.47;;;15.00;99.90;;;;;;4881152;29;20205;-88
2021/09/02 09:27:43;;;;;;;15.43;5.55;;;15.00;99.90;;;;;;4880916;29;20276;-89
2021/09/02 09:30:14;;;;;;;8.48;3.38;;;15.20;99.90;;;;;;4880660;29;20192;-92
2021/09/02 09:32:47;;;;;;;12.27;5.15;;;15.40;99.90;;;;;;4898885;29;20177;-91
2021/09/02 09:35:16;;;;;;;8.02;3.88;;;15.40;99.90;;;;;;4897934;29;20605;-90
2021/09/02 09:37:42;;;;;;;9.10;4.20;;;15.10;99.90;;;;;;4882227;29;20241;-89
2021/09/02 09:40:19;;;;;;;10.15;3.72;;;15.20;99.90;;;;;;4881410;29;20177;-88
2021/09/02 09:43:10;;;;;;;8.15;4.53;;;15.00;99.90;;;;;;4881022;29;20233;-89
2021/09/02 09:45:48;;;;;;;11.38;4.50;;;15.00;99.90;;;;;;4882473;29;20220;-91
2021/09/02 09:48:19;;;;;;;9.23;4.28;;;14.90;99.90;;;;;;4880509;29;20547;-88
2021/09/02 09:51:04;;;;;;;12.02;4.25;;;14.90;99.90;;;;;;4879861;29;20186;-88
2021/09/02 09:53:31;;;;;;;6.63;4.43;;;14.80;99.90;;;;;;4896818;29;20624;-90
2021/09/02 09:55:57;;;;;;;9.10;4.93;;;15.10;99.90;;;;;;4897532;29;20185;-88
2021/09/02 09:58:25;;;;;;;9.18;5.18;;;15.00;99.90;;;;;;4880837;29;20190;-91
2021/09/02 10:00:56;;;;;;;12.40;5.45;;;15.10;99.90;;;;;;4883535;29;20236;-89
2021/09/02 10:03:22;;;;;;;9.25;5.60;;;15.30;99.90;;;;;;4868882;29;20201;-89
2021/09/02 10:05:49;;;;;;;7.03;4.55;;;15.30;99.90;;;;;;4884232;29;20223;-89
2021/09/02 10:08:19;;;;;;;16.88;5.90;;;12.90;99.90;;;;;;4883748;29;20328;-87
2021/09/02 10:10:49;;;;;;;13.55;5.55;;;15.10;99.90;;;;;;4884261;29;20529;-88
2021/09/02 10:13:16;;;;;;;9.00;5.20;;;14.90;99.90;;;;;;4900965;29;20215;-88
2021/09/02 10:15:42;;;;;;;9.80;4.30;;;14.80;99.90;;;;;;4883846;29;20291;-88
2021/09/02 10:18:09;;;;;;;10.15;4.05;;;15.10;99.90;;;;;;4883843;29;20181;-88
2021/09/02 10:20:41;;;;;;;6.68;3.72;;;15.00;99.90;;;;;;4884420;29;20181;-91
2021/09/02 10:23:07;;;;;;;7.00;4.18;;;15.60;99.90;;;;;;4891860;29;20170;-89
2021/09/02 10:25:37;;;;;;;6.68;3.22;;;;;;;;;;4891716;29;20236;-89
2021/09/02 10:28:17;;;;;;;6.95;3.45;;;15.70;99.90;;;;;;4900564;29;20230;-88
2021/09/02 10:30:45;;;;;;;5.57;4.03;;;15.70;99.90;;;;;;4883461;29;20631;-90
2021/09/02 10:33:35;;;;;;;7.03;4.00;;;15.60;99.90;;;;;;4882565;29;20182;-91
2021/09/02 10:36:23;;;;;;;11.45;4.32;;;14.10;99.90;;;;;;4883621;29;20185;-92
2021/09/02 10:38:56;;;;;;;7.45;4.28;;;15.80;99.90;;;;;;4864090;29;20198;-88
2021/09/02 10:41:35;;;;;;;8.40;3.60;;;15.80;99.90;;;;;;4863900;29;20640;-90
2021/09/02 10:44:02;;;;;;;6.35;3.60;;;15.60;99.90;;;;;;4881840;29;20205;-90
2021/09/02 10:46:52;;;;;;;7.30;3.78;;;15.80;99.90;;;;;;4865155;29;20196;-94
2021/09/02 10:49:29;;;;;;;7.70;3.42;;;15.70;99.90;;;;;;4868934;29;20188;-92
2021/09/02 10:52:08;;;;;;;7.57;3.72;;;15.50;99.90;;;;;;4866552;29;20185;-93
2021/09/02 10:54:38;;;;;;;6.43;3.70;;;15.60;99.90;;;;;;4902895;29;20170;-90
2021/09/02 10:57:09;;;;;;;6.90;4.28;;;15.90;99.90;;;;;;4888137;29;20206;-91
2021/09/02 10:59:45;;;;;;;6.15;3.95;;;15.50;99.90;;;;;;4849354;29;20174;-90
2021/09/02 11:02:33;;;;;;;7.20;3.92;;;15.60;99.90;;;;;;4880881;29;20181;-92
2021/09/02 11:05:04;;;;;;;10.73;4.53;;;15.60;99.90;;;;;;4864080;29;20221;-89
2021/09/02 11:07:43;;;;;;;8.38;3.80;;;15.70;99.90;;;;;;4864915;29;20197;-91
2021/09/02 11:10:21;;;;;;;7.72;3.83;;;15.70;99.90;;;;;;4863988;29;20182;-92
2021/09/02 11:12:48;;;;;;;8.60;3.97;;;15.70;99.90;;;;;;4864285;29;20322;-91
2021/09/02 11:22:14;;;;;;;8.80;3.80;;;15.80;99.90;;;;;;4866519;29;20197;-89
2021/09/02 11:24:48;;;;;;;6.30;3.10;;;16.20;99.90;;;;;;4880762;29;20281;-89
2021/09/02 11:27:27;;;;;;;9.55;3.05;;;16.10;99.90;;;;;;4863732;29;20190;-91
2021/09/02 11:30:31;;;;;;;9.38;4.40;;;15.90;99.90;;;;;;4866667;29;20182;-94
2021/09/02 11:33:05;;;;;;;9.90;3.72;;;14.90;99.90;;;;;;4865477;29;20204;-91
2021/09/02 11:35:34;;;;;;;7.32;3.47;;;15.90;99.90;;;;;;4885033;29;20269;-93
2021/09/02 11:38:00;;;;;;;15.02;4.00;;;16.20;99.90;;;;;;4879601;29;20272;-89
2021/09/02 11:40:29;;;;;;;6.75;3.70;;;16.10;99.90;;;;;;4882722;29;20182;-89
2021/09/02 11:42:58;;;;;;;8.15;3.20;;;18.40;99.90;;;;;;4881873;29;20269;-90
2021/09/02 11:45:29;;;;;;;17.13;3.72;;;15.50;99.90;;;;;;4866268;29;20209;-90
2021/09/02 11:47:55;;;;;;;4.90;3.17;;;16.50;99.90;;;;;;4882457;29;20250;-90
2021/09/02 11:50:22;;;;;;;6.28;3.72;;;16.20;99.90;;;;;;4881370;29;20200;-90
2021/09/02 11:52:57;;;;;;;10.75;3.58;;;16.40;99.90;;;;;;4898773;29;20182;-90
2021/09/02 11:55:29;;;;;;;9.57;3.45;;;15.70;99.90;;;;;;4882068;29;20185;-91
2021/09/02 11:57:58;;;;;;;12.15;3.45;;;16.00;99.90;;;;;;4898471;29;20168;-90
2021/09/02 12:00:29;;;;;;;10.43;3.30;;;15.70;99.90;;;;;;4898300;29;20567;-92
2021/09/02 12:02:57;;;;;;;5.70;3.08;;;19.00;99.90;;;;;;4882179;29;20177;-90
2021/09/02 12:05:26;;;;;;;9.25;4.03;;;15.90;99.90;;;;;;4898001;29;20241;-90
2021/09/02 12:07:54;;;;;;;7.70;3.65;;;15.80;99.90;;;;;;4899430;29;20181;-90
2021/09/02 12:10:24;;;;;;;8.27;3.90;;;15.70;99.90;;;;;;4881428;29;20728;-89
2021/09/02 12:12:58;;;;;;;7.13;3.60;;;15.70;99.90;;;;;;4881436;29;20177;-90
2021/09/02 12:15:29;;;;;;;7.35;3.45;;;15.80;99.90;;;;;;4867115;29;20618;-90
2021/09/02 12:18:09;;;;;;;8.90;3.55;;;16.00;99.90;;;;;;4885348;29;20205;-91
2021/09/02 12:20:37;;;;;;;8.48;2.90;;;15.80;99.90;;;;;;4886662;29;20181;-89
2021/09/02 12:23:40;;;;;;;3.42;2.40;;;15.90;99.90;;;;;;4906632;29;20196;-92
2021/09/02 12:26:06;;;;;;;5.70;2.78;;;15.90;99.90;;;;;;4881362;29;20203;-93
2021/09/02 12:28:41;;;;;;;5.72;2.65;;;16.20;99.90;;;;;;4882360;29;20257;-93
2021/09/02 12:31:31;;;;;;;5.72;3.03;;;16.20;99.90;;;;;;4881695;29;20694;-90
2021/09/02 12:34:10;;;;;;;6.55;2.88;;;14.60;99.90;;;;;;4881290;29;20181;-90
2021/09/02 12:36:39;;;;;;;5.18;3.05;;;16.40;99.90;;;;;;4881348;29;20319;-93
2021/09/02 12:39:41;;;;;;;7.03;3.58;;;16.30;99.90;;;;;;4899408;29;20182;-90
2021/09/02 12:42:07;;;;;;;10.38;2.95;;;16.40;99.90;;;;;;4885949;29;20264;-90
2021/09/02 12:44:38;;;;;;;7.57;3.15;;;16.60;99.90;;;;;;4897866;29;20204;-90
2021/09/02 12:47:07;;;;;;;8.30;3.13;;;16.70;99.90;;;;;;4899225;29;20177;-92
2021/09/02 12:49:52;;;;;;;8.95;3.75;;;16.70;99.90;;;;;;4897026;29;20177;-90
2021/09/02 12:52:33;;;;;;;6.18;2.80;;;16.80;99.90;;;;;;4881452;29;20227;-93
2021/09/02 12:55:14;;;;;;;4.70;2.58;;;17.30;99.90;;;;;;4897815;29;20183;-90
2021/09/02 12:57:46;;;;;;;5.97;2.25;;;17.20;99.90;;;;;;4882529;29;20188;-94
2021/09/02 13:00:38;;;;;;;4.90;2.88;;;17.10;99.90;;;;;;4881121;29;20201;-90
2021/09/02 13:03:11;;;;;;;9.27;2.80;;;17.10;99.90;;;;;;4881274;29;20709;-90
2021/09/02 13:05:38;;;;;;;4.47;2.67;;;17.50;99.90;;;;;;4880962;29;20213;-91
2021/09/02 13:08:07;;;;;;;4.65;2.80;;;17.30;99.90;;;;;;4898810;29;20651;-90
2021/09/02 13:10:35;;;;;;;6.10;2.85;;;17.80;99.90;;;;;;4885612;29;20189;-90
2021/09/02 13:13:02;;;;;;;5.38;2.45;;;18.30;99.90;;;;;;4900877;29;20632;-91
2021/09/02 13:15:29;;;;;;;6.22;2.70;;;18.80;99.90;;;;;;4882983;29;20236;-90